sensor_id;sensor_type;location;lat;lon;timestamp;P1;durP1;ratioP1;P2;durP2;ratioP2
15952;SDS011;8075;47.766;8.846;2023-08-20T00:01:41;4.85;;;4.15;;
15952;SDS011;8075;47.766;8.846;2023-08-20T00:04:07;4.28;;;3.92;;
15952;SDS011;8075;47.766;8.846;2023-08-20T00:06:34;5.07;;;4.57;;
15952;SDS011;8075;47.766;8.846;2023-08-20T00:09:00;4.80;;;4.40;;
15952;SDS011;8075;47.766;8.846;2023-08-20T00:11:26;4.22;;;3.92;;
15952;SDS011;8075;47.766;8.846;2023-08-20T00:13:52;4.22;;;3.83;;
15952;SDS011;8075;47.766;8.846;2023-08-20T00:16:18;4.80;;;4.40;;
15952;SDS011;8075;47.766;8.846;2023-08-20T00:18:44;5.47;;;4.32;;
15952;SDS011;8075;47.766;8.846;2023-08-20T00:21:10;4.63;;;4.22;;
15952;SDS011;8075;47.766;8.846;2023-08-20T00:23:36;4.88;;;4.43;;
15952;SDS011;8075;47.766;8.846;2023-08-20T00:26:03;4.93;;;4.20;;
15952;SDS011;8075;47.766;8.846;2023-08-20T00:28:29;4.85;;;4.30;;
15952;SDS011;8075;47.766;8.846;2023-08-20T00:30:55;5.25;;;4.22;;
15952;SDS011;8075;47.766;8.846;2023-08-20T00:33:21;4.13;;;3.83;;
15952;SDS011;8075;47.766;8.846;2023-08-20T00:35:47;3.90;;;3.60;;
15952;SDS011;8075;47.766;8.846;2023-08-20T00:38:13;4.40;;;4.00;;
15952;SDS011;8075;47.766;8.846;2023-08-20T00:40:39;4.45;;;4.05;;
15952;SDS011;8075;47.766;8.846;2023-08-20T00:43:05;4.60;;;4.20;;
15952;SDS011;8075;47.766;8.846;2023-08-20T00:45:31;4.47;;;4.10;;
15952;SDS011;8075;47.766;8.846;2023-08-20T00:47:57;5.72;;;4.45;;
15952;SDS011;8075;47.766;8.846;2023-08-20T00:50:23;5.27;;;4.30;;
15952;SDS011;8075;47.766;8.846;2023-08-20T00:52:49;4.30;;;3.90;;
15952;SDS011;8075;47.766;8.846;2023-08-20T00:55:15;4.60;;;4.20;;
15952;SDS011;8075;47.766;8.846;2023-08-20T00:57:42;6.03;;;4.45;;
15952;SDS011;8075;47.766;8.846;2023-08-20T01:00:08;4.90;;;4.30;;
15952;SDS011;8075;47.766;8.846;2023-08-20T01:02:38;5.10;;;4.60;;
15952;SDS011;8075;47.766;8.846;2023-08-20T01:05:07;4.93;;;4.43;;
15952;SDS011;8075;47.766;8.846;2023-08-20T01:07:39;4.95;;;4.60;;
15952;SDS011;8075;47.766;8.846;2023-08-20T01:12:34;4.65;;;4.10;;
15952;SDS011;8075;47.766;8.846;2023-08-20T01:15:01;4.80;;;4.40;;
15952;SDS011;8075;47.766;8.846;2023-08-20T01:17:27;4.97;;;4.47;;
15952;SDS011;8075;47.766;8.846;2023-08-20T01:19:54;4.63;;;4.22;;
15952;SDS011;8075;47.766;8.846;2023-08-20T01:30:21;4.68;;;4.28;;
15952;SDS011;8075;47.766;8.846;2023-08-20T01:32:48;4.43;;;4.03;;
15952;SDS011;8075;47.766;8.846;2023-08-20T01:35:16;4.55;;;4.15;;
15952;SDS011;8075;47.766;8.846;2023-08-20T01:37:42;5.20;;;4.70;;
15952;SDS011;8075;47.766;8.846;2023-08-20T01:40:08;4.55;;;4.15;;
15952;SDS011;8075;47.766;8.846;2023-08-20T01:42:37;5.05;;;4.63;;
15952;SDS011;8075;47.766;8.846;2023-08-20T01:45:04;4.72;;;4.28;;
15952;SDS011;8075;47.766;8.846;2023-08-20T01:47:30;5.22;;;4.60;;
15952;SDS011;8075;47.766;8.846;2023-08-20T01:49:56;4.70;;;4.30;;
15952;SDS011;8075;47.766;8.846;2023-08-20T01:52:23;4.43;;;4.03;;
15952;SDS011;8075;47.766;8.846;2023-08-20T01:54:49;4.70;;;4.30;;
15952;SDS011;8075;47.766;8.846;2023-08-20T01:57:15;4.55;;;4.15;;
15952;SDS011;8075;47.766;8.846;2023-08-20T01:59:41;5.10;;;4.30;;
15952;SDS011;8075;47.766;8.846;2023-08-20T02:02:07;4.80;;;4.40;;
15952;SDS011;8075;47.766;8.846;2023-08-20T02:04:33;4.13;;;3.78;;
15952;SDS011;8075;47.766;8.846;2023-08-20T02:06:59;4.57;;;4.25;;
15952;SDS011;8075;47.766;8.846;2023-08-20T02:09:25;4.75;;;4.35;;
15952;SDS011;8075;47.766;8.846;2023-08-20T02:11:51;4.35;;;3.95;;
15952;SDS011;8075;47.766;8.846;2023-08-20T02:14:17;4.03;;;3.70;;
15952;SDS011;8075;47.766;8.846;2023-08-20T02:16:45;4.17;;;3.77;;
15952;SDS011;8075;47.766;8.846;2023-08-20T02:19:11;4.45;;;4.03;;
15952;SDS011;8075;47.766;8.846;2023-08-20T02:21:37;4.38;;;4.03;;
15952;SDS011;8075;47.766;8.846;2023-08-20T02:24:03;4.22;;;3.92;;
15952;SDS011;8075;47.766;8.846;2023-08-20T02:26:30;4.22;;;3.90;;
15952;SDS011;8075;47.766;8.846;2023-08-20T02:28:56;5.03;;;4.03;;
15952;SDS011;8075;47.766;8.846;2023-08-20T02:31:21;4.38;;;3.90;;
15952;SDS011;8075;47.766;8.846;2023-08-20T02:33:47;4.75;;;4.35;;
15952;SDS011;8075;47.766;8.846;2023-08-20T02:36:14;3.97;;;3.70;;
15952;SDS011;8075;47.766;8.846;2023-08-20T02:38:40;4.32;;;4.00;;
15952;SDS011;8075;47.766;8.846;2023-08-20T02:41:06;4.32;;;4.03;;
15952;SDS011;8075;47.766;8.846;2023-08-20T02:43:32;4.55;;;4.15;;
15952;SDS011;8075;47.766;8.846;2023-08-20T02:45:58;5.00;;;4.47;;
15952;SDS011;8075;47.766;8.846;2023-08-20T02:48:24;4.57;;;4.18;;
15952;SDS011;8075;47.766;8.846;2023-08-20T02:50:53;4.32;;;4.03;;
15952;SDS011;8075;47.766;8.846;2023-08-20T02:53:19;4.20;;;3.80;;
15952;SDS011;8075;47.766;8.846;2023-08-20T02:55:45;4.22;;;3.90;;
15952;SDS011;8075;47.766;8.846;2023-08-20T02:58:11;4.40;;;3.90;;
15952;SDS011;8075;47.766;8.846;2023-08-20T03:00:37;4.95;;;4.45;;
15952;SDS011;8075;47.766;8.846;2023-08-20T03:03:04;4.68;;;4.28;;
15952;SDS011;8075;47.766;8.846;2023-08-20T03:05:32;4.93;;;4.55;;
15952;SDS011;8075;47.766;8.846;2023-08-20T03:07:58;4.45;;;4.15;;
15952;SDS011;8075;47.766;8.846;2023-08-20T03:10:25;4.85;;;4.55;;
15952;SDS011;8075;47.766;8.846;2023-08-20T03:12:51;4.22;;;3.90;;
15952;SDS011;8075;47.766;8.846;2023-08-20T03:15:17;5.25;;;4.45;;
15952;SDS011;8075;47.766;8.846;2023-08-20T03:17:43;4.60;;;4.20;;
15952;SDS011;8075;47.766;8.846;2023-08-20T03:20:09;4.70;;;4.40;;
15952;SDS011;8075;47.766;8.846;2023-08-20T03:22:36;4.63;;;4.23;;
15952;SDS011;8075;47.766;8.846;2023-08-20T03:25:03;4.63;;;4.22;;
15952;SDS011;8075;47.766;8.846;2023-08-20T03:27:29;4.65;;;4.22;;
15952;SDS011;8075;47.766;8.846;2023-08-20T03:29:55;4.57;;;4.18;;
15952;SDS011;8075;47.766;8.846;2023-08-20T03:32:22;4.87;;;4.53;;
15952;SDS011;8075;47.766;8.846;2023-08-20T03:34:48;4.43;;;4.13;;
15952;SDS011;8075;47.766;8.846;2023-08-20T03:37:14;5.78;;;4.30;;
15952;SDS011;8075;47.766;8.846;2023-08-20T03:39:40;4.13;;;3.83;;
15952;SDS011;8075;47.766;8.846;2023-08-20T03:42:06;4.70;;;4.30;;
15952;SDS011;8075;47.766;8.846;2023-08-20T03:44:32;4.57;;;4.18;;
15952;SDS011;8075;47.766;8.846;2023-08-20T03:46:58;4.95;;;4.55;;
15952;SDS011;8075;47.766;8.846;2023-08-20T03:49:24;4.57;;;4.10;;
15952;SDS011;8075;47.766;8.846;2023-08-20T03:51:50;4.80;;;4.40;;
15952;SDS011;8075;47.766;8.846;2023-08-20T03:54:16;4.70;;;4.30;;
15952;SDS011;8075;47.766;8.846;2023-08-20T03:56:42;4.47;;;4.07;;
15952;SDS011;8075;47.766;8.846;2023-08-20T03:59:08;4.35;;;4.05;;
15952;SDS011;8075;47.766;8.846;2023-08-20T04:01:33;4.70;;;4.30;;
15952;SDS011;8075;47.766;8.846;2023-08-20T04:04:01;4.30;;;3.90;;
15952;SDS011;8075;47.766;8.846;2023-08-20T04:06:28;4.60;;;4.20;;
15952;SDS011;8075;47.766;8.846;2023-08-20T04:08:54;4.53;;;4.13;;
15952;SDS011;8075;47.766;8.846;2023-08-20T04:11:20;4.60;;;4.20;;
15952;SDS011;8075;47.766;8.846;2023-08-20T04:13:46;5.63;;;4.68;;
15952;SDS011;8075;47.766;8.846;2023-08-20T04:16:12;4.82;;;4.40;;
15952;SDS011;8075;47.766;8.846;2023-08-20T04:18:38;4.70;;;4.10;;
15952;SDS011;8075;47.766;8.846;2023-08-20T04:21:04;4.60;;;4.23;;
15952;SDS011;8075;47.766;8.846;2023-08-20T04:23:30;5.07;;;4.57;;
15952;SDS011;8075;47.766;8.846;2023-08-20T04:25:56;4.90;;;4.50;;
15952;SDS011;8075;47.766;8.846;2023-08-20T04:28:22;4.57;;;4.18;;
15952;SDS011;8075;47.766;8.846;2023-08-20T04:30:48;6.20;;;4.30;;
15952;SDS011;8075;47.766;8.846;2023-08-20T04:33:19;5.13;;;4.57;;
15952;SDS011;8075;47.766;8.846;2023-08-20T04:35:45;4.80;;;4.38;;
15952;SDS011;8075;47.766;8.846;2023-08-20T04:38:11;4.67;;;4.27;;
15952;SDS011;8075;47.766;8.846;2023-08-20T04:40:37;5.13;;;4.73;;
15952;SDS011;8075;47.766;8.846;2023-08-20T04:43:03;5.03;;;4.53;;
15952;SDS011;8075;47.766;8.846;2023-08-20T04:45:29;5.15;;;4.75;;
15952;SDS011;8075;47.766;8.846;2023-08-20T04:47:55;5.07;;;4.50;;
15952;SDS011;8075;47.766;8.846;2023-08-20T04:50:21;5.18;;;4.68;;
15952;SDS011;8075;47.766;8.846;2023-08-20T04:52:47;5.95;;;4.93;;
15952;SDS011;8075;47.766;8.846;2023-08-20T04:55:13;5.20;;;4.80;;
15952;SDS011;8075;47.766;8.846;2023-08-20T04:57:40;5.10;;;4.60;;
15952;SDS011;8075;47.766;8.846;2023-08-20T05:00:06;6.32;;;4.45;;
15952;SDS011;8075;47.766;8.846;2023-08-20T05:02:34;5.70;;;4.60;;
15952;SDS011;8075;47.766;8.846;2023-08-20T05:05:01;5.00;;;4.60;;
15952;SDS011;8075;47.766;8.846;2023-08-20T05:07:27;4.88;;;4.55;;
15952;SDS011;8075;47.766;8.846;2023-08-20T05:09:53;6.00;;;5.20;;
15952;SDS011;8075;47.766;8.846;2023-08-20T05:12:19;5.47;;;5.10;;
15952;SDS011;8075;47.766;8.846;2023-08-20T05:14:45;4.90;;;4.50;;
15952;SDS011;8075;47.766;8.846;2023-08-20T05:17:11;5.78;;;5.30;;
15952;SDS011;8075;47.766;8.846;2023-08-20T05:19:37;5.63;;;5.22;;
15952;SDS011;8075;47.766;8.846;2023-08-20T05:22:03;5.70;;;5.25;;
15952;SDS011;8075;47.766;8.846;2023-08-20T05:24:29;4.85;;;4.47;;
15952;SDS011;8075;47.766;8.846;2023-08-20T05:27:08;6.53;;;4.93;;
15952;SDS011;8075;47.766;8.846;2023-08-20T05:29:34;5.40;;;4.90;;
15952;SDS011;8075;47.766;8.846;2023-08-20T05:32:01;5.25;;;4.80;;
15952;SDS011;8075;47.766;8.846;2023-08-20T05:34:27;5.00;;;4.65;;
15952;SDS011;8075;47.766;8.846;2023-08-20T05:36:53;5.20;;;4.80;;
15952;SDS011;8075;47.766;8.846;2023-08-20T05:39:19;5.00;;;4.55;;
15952;SDS011;8075;47.766;8.846;2023-08-20T05:41:45;5.88;;;5.38;;
15952;SDS011;8075;47.766;8.846;2023-08-20T05:44:11;5.60;;;5.10;;
15952;SDS011;8075;47.766;8.846;2023-08-20T05:46:36;5.20;;;4.80;;
15952;SDS011;8075;47.766;8.846;2023-08-20T05:49:02;5.53;;;4.93;;
15952;SDS011;8075;47.766;8.846;2023-08-20T05:51:28;5.07;;;4.63;;
15952;SDS011;8075;47.766;8.846;2023-08-20T05:53:54;4.82;;;4.50;;
15952;SDS011;8075;47.766;8.846;2023-08-20T05:56:20;5.63;;;5.22;;
15952;SDS011;8075;47.766;8.846;2023-08-20T05:58:46;5.50;;;5.00;;
15952;SDS011;8075;47.766;8.846;2023-08-20T06:01:12;6.53;;;4.85;;
15952;SDS011;8075;47.766;8.846;2023-08-20T06:03:38;5.55;;;5.00;;
15952;SDS011;8075;47.766;8.846;2023-08-20T06:06:04;4.80;;;4.47;;
15952;SDS011;8075;47.766;8.846;2023-08-20T06:08:30;5.10;;;4.70;;
15952;SDS011;8075;47.766;8.846;2023-08-20T06:10:56;6.78;;;5.90;;
15952;SDS011;8075;47.766;8.846;2023-08-20T06:13:22;5.50;;;5.00;;
15952;SDS011;8075;47.766;8.846;2023-08-20T06:15:48;6.35;;;5.85;;
15952;SDS011;8075;47.766;8.846;2023-08-20T06:18:14;7.10;;;6.30;;
15952;SDS011;8075;47.766;8.846;2023-08-20T06:20:40;6.93;;;6.30;;
15952;SDS011;8075;47.766;8.846;2023-08-20T06:23:06;6.25;;;5.65;;
15952;SDS011;8075;47.766;8.846;2023-08-20T06:25:32;7.03;;;6.33;;
15952;SDS011;8075;47.766;8.846;2023-08-20T06:27:58;8.40;;;7.27;;
15952;SDS011;8075;47.766;8.846;2023-08-20T06:30:24;5.93;;;5.43;;
15952;SDS011;8075;47.766;8.846;2023-08-20T06:32:50;5.72;;;5.18;;
15952;SDS011;8075;47.766;8.846;2023-08-20T06:35:16;5.38;;;4.88;;
15952;SDS011;8075;47.766;8.846;2023-08-20T06:37:42;5.80;;;5.20;;
15952;SDS011;8075;47.766;8.846;2023-08-20T06:40:08;5.15;;;4.75;;
15952;SDS011;8075;47.766;8.846;2023-08-20T06:42:34;5.38;;;4.88;;
15952;SDS011;8075;47.766;8.846;2023-08-20T06:45:00;5.72;;;5.22;;
15952;SDS011;8075;47.766;8.846;2023-08-20T06:47:26;5.25;;;4.78;;
15952;SDS011;8075;47.766;8.846;2023-08-20T06:49:52;7.97;;;5.32;;
15952;SDS011;8075;47.766;8.846;2023-08-20T06:52:18;5.30;;;4.80;;
15952;SDS011;8075;47.766;8.846;2023-08-20T06:54:44;5.47;;;5.00;;
15952;SDS011;8075;47.766;8.846;2023-08-20T06:57:10;5.97;;;5.10;;
15952;SDS011;8075;47.766;8.846;2023-08-20T06:59:36;5.35;;;4.85;;
15952;SDS011;8075;47.766;8.846;2023-08-20T07:02:02;5.47;;;5.07;;
15952;SDS011;8075;47.766;8.846;2023-08-20T07:04:28;5.50;;;5.03;;
15952;SDS011;8075;47.766;8.846;2023-08-20T07:06:55;6.03;;;4.93;;
15952;SDS011;8075;47.766;8.846;2023-08-20T07:09:21;5.43;;;4.93;;
15952;SDS011;8075;47.766;8.846;2023-08-20T07:11:47;5.40;;;4.90;;
15952;SDS011;8075;47.766;8.846;2023-08-20T07:14:13;5.45;;;5.05;;
15952;SDS011;8075;47.766;8.846;2023-08-20T07:16:39;5.90;;;5.40;;
15952;SDS011;8075;47.766;8.846;2023-08-20T07:19:04;5.60;;;5.10;;
15952;SDS011;8075;47.766;8.846;2023-08-20T07:21:30;6.03;;;5.20;;
15952;SDS011;8075;47.766;8.846;2023-08-20T07:23:56;5.35;;;5.00;;
15952;SDS011;8075;47.766;8.846;2023-08-20T07:26:22;6.55;;;5.90;;
15952;SDS011;8075;47.766;8.846;2023-08-20T07:28:48;5.93;;;5.38;;
15952;SDS011;8075;47.766;8.846;2023-08-20T07:31:25;5.82;;;5.20;;
15952;SDS011;8075;47.766;8.846;2023-08-20T07:33:51;5.88;;;5.38;;
15952;SDS011;8075;47.766;8.846;2023-08-20T07:36:17;6.22;;;5.63;;
15952;SDS011;8075;47.766;8.846;2023-08-20T07:38:43;5.75;;;5.35;;
15952;SDS011;8075;47.766;8.846;2023-08-20T07:41:10;5.57;;;5.07;;
15952;SDS011;8075;47.766;8.846;2023-08-20T07:43:39;5.47;;;5.07;;
15952;SDS011;8075;47.766;8.846;2023-08-20T07:46:06;5.38;;;4.85;;
15952;SDS011;8075;47.766;8.846;2023-08-20T07:48:33;7.20;;;5.27;;
15952;SDS011;8075;47.766;8.846;2023-08-20T07:50:59;5.68;;;5.18;;
15952;SDS011;8075;47.766;8.846;2023-08-20T07:53:25;5.22;;;4.82;;
15952;SDS011;8075;47.766;8.846;2023-08-20T07:55:51;5.28;;;4.88;;
15952;SDS011;8075;47.766;8.846;2023-08-20T07:58:17;5.13;;;4.70;;
15952;SDS011;8075;47.766;8.846;2023-08-20T08:00:43;5.43;;;4.82;;
15952;SDS011;8075;47.766;8.846;2023-08-20T08:03:09;5.38;;;4.88;;
15952;SDS011;8075;47.766;8.846;2023-08-20T08:05:36;5.23;;;4.80;;
15952;SDS011;8075;47.766;8.846;2023-08-20T08:08:02;5.63;;;5.13;;
15952;SDS011;8075;47.766;8.846;2023-08-20T08:10:28;6.57;;;5.28;;
15952;SDS011;8075;47.766;8.846;2023-08-20T08:12:54;5.03;;;4.72;;
15952;SDS011;8075;47.766;8.846;2023-08-20T08:15:20;5.73;;;5.00;;
15952;SDS011;8075;47.766;8.846;2023-08-20T08:17:46;5.03;;;4.57;;
15952;SDS011;8075;47.766;8.846;2023-08-20T08:20:12;7.25;;;5.03;;
15952;SDS011;8075;47.766;8.846;2023-08-20T08:22:39;5.28;;;4.80;;
15952;SDS011;8075;47.766;8.846;2023-08-20T08:25:05;5.93;;;4.85;;
15952;SDS011;8075;47.766;8.846;2023-08-20T08:27:31;5.35;;;4.90;;
15952;SDS011;8075;47.766;8.846;2023-08-20T08:29:57;5.60;;;4.80;;
15952;SDS011;8075;47.766;8.846;2023-08-20T08:32:23;5.10;;;4.70;;
15952;SDS011;8075;47.766;8.846;2023-08-20T08:34:50;5.30;;;4.80;;
15952;SDS011;8075;47.766;8.846;2023-08-20T08:37:16;5.57;;;4.75;;
15952;SDS011;8075;47.766;8.846;2023-08-20T08:39:42;5.35;;;4.85;;
15952;SDS011;8075;47.766;8.846;2023-08-20T08:42:08;6.07;;;4.78;;
15952;SDS011;8075;47.766;8.846;2023-08-20T08:44:36;8.18;;;4.85;;
15952;SDS011;8075;47.766;8.846;2023-08-20T08:47:03;4.90;;;4.40;;
15952;SDS011;8075;47.766;8.846;2023-08-20T08:49:32;5.90;;;4.70;;
15952;SDS011;8075;47.766;8.846;2023-08-20T08:51:59;5.75;;;4.35;;
15952;SDS011;8075;47.766;8.846;2023-08-20T08:54:25;5.75;;;4.93;;
15952;SDS011;8075;47.766;8.846;2023-08-20T08:56:52;4.78;;;4.38;;
15952;SDS011;8075;47.766;8.846;2023-08-20T08:59:18;5.28;;;4.78;;
15952;SDS011;8075;47.766;8.846;2023-08-20T09:01:44;6.50;;;4.50;;
15952;SDS011;8075;47.766;8.846;2023-08-20T09:04:10;7.60;;;4.43;;
15952;SDS011;8075;47.766;8.846;2023-08-20T09:06:52;5.60;;;4.45;;
15952;SDS011;8075;47.766;8.846;2023-08-20T09:09:19;6.35;;;4.72;;
15952;SDS011;8075;47.766;8.846;2023-08-20T09:11:46;6.20;;;4.63;;
15952;SDS011;8075;47.766;8.846;2023-08-20T09:14:21;4.90;;;4.40;;
15952;SDS011;8075;47.766;8.846;2023-08-20T09:16:53;5.10;;;4.38;;
15952;SDS011;8075;47.766;8.846;2023-08-20T09:19:20;4.68;;;4.20;;
15952;SDS011;8075;47.766;8.846;2023-08-20T09:21:46;4.70;;;4.13;;
15952;SDS011;8075;47.766;8.846;2023-08-20T09:24:13;5.17;;;4.00;;
15952;SDS011;8075;47.766;8.846;2023-08-20T09:26:39;4.53;;;4.10;;
15952;SDS011;8075;47.766;8.846;2023-08-20T09:29:05;4.60;;;4.20;;
15952;SDS011;8075;47.766;8.846;2023-08-20T09:31:40;4.60;;;4.00;;
15952;SDS011;8075;47.766;8.846;2023-08-20T09:34:11;3.97;;;3.67;;
15952;SDS011;8075;47.766;8.846;2023-08-20T09:36:38;4.50;;;3.95;;
15952;SDS011;8075;47.766;8.846;2023-08-20T09:39:04;5.95;;;3.85;;
15952;SDS011;8075;47.766;8.846;2023-08-20T09:41:30;4.22;;;3.83;;
15952;SDS011;8075;47.766;8.846;2023-08-20T09:43:57;5.60;;;3.90;;
15952;SDS011;8075;47.766;8.846;2023-08-20T09:46:24;7.13;;;4.13;;
15952;SDS011;8075;47.766;8.846;2023-08-20T09:48:51;4.78;;;4.30;;
15952;SDS011;8075;47.766;8.846;2023-08-20T09:51:18;6.13;;;4.43;;
15952;SDS011;8075;47.766;8.846;2023-08-20T09:53:48;4.70;;;4.20;;
15952;SDS011;8075;47.766;8.846;2023-08-20T09:56:19;4.10;;;3.70;;
15952;SDS011;8075;47.766;8.846;2023-08-20T09:58:48;4.20;;;3.80;;
15952;SDS011;8075;47.766;8.846;2023-08-20T10:01:14;5.90;;;4.00;;
15952;SDS011;8075;47.766;8.846;2023-08-20T10:03:40;4.70;;;4.20;;
15952;SDS011;8075;47.766;8.846;2023-08-20T10:06:07;4.57;;;4.17;;
15952;SDS011;8075;47.766;8.846;2023-08-20T10:08:33;4.88;;;4.40;;
15952;SDS011;8075;47.766;8.846;2023-08-20T10:10:59;5.88;;;4.25;;
15952;SDS011;8075;47.766;8.846;2023-08-20T10:13:25;5.53;;;4.20;;
15952;SDS011;8075;47.766;8.846;2023-08-20T10:15:51;4.57;;;3.88;;
15952;SDS011;8075;47.766;8.846;2023-08-20T10:18:19;4.30;;;3.95;;
15952;SDS011;8075;47.766;8.846;2023-08-20T10:20:45;4.83;;;4.30;;
15952;SDS011;8075;47.766;8.846;2023-08-20T10:23:11;4.68;;;4.20;;
15952;SDS011;8075;47.766;8.846;2023-08-20T10:25:41;4.53;;;4.13;;
15952;SDS011;8075;47.766;8.846;2023-08-20T10:28:21;5.78;;;4.07;;
15952;SDS011;8075;47.766;8.846;2023-08-20T10:33:29;7.65;;;4.03;;
15952;SDS011;8075;47.766;8.846;2023-08-20T10:35:55;4.97;;;3.50;;
15952;SDS011;8075;47.766;8.846;2023-08-20T10:38:22;4.50;;;3.72;;
15952;SDS011;8075;47.766;8.846;2023-08-20T10:43:50;4.65;;;3.90;;
15952;SDS011;8075;47.766;8.846;2023-08-20T10:46:18;6.80;;;3.60;;
15952;SDS011;8075;47.766;8.846;2023-08-20T10:48:46;4.32;;;3.60;;
15952;SDS011;8075;47.766;8.846;2023-08-20T10:53:43;7.47;;;3.83;;
15952;SDS011;8075;47.766;8.846;2023-08-20T10:56:13;5.10;;;3.80;;
15952;SDS011;8075;47.766;8.846;2023-08-20T10:58:46;4.78;;;3.72;;
15952;SDS011;8075;47.766;8.846;2023-08-20T11:01:18;6.10;;;3.88;;
15952;SDS011;8075;47.766;8.846;2023-08-20T11:03:45;3.90;;;3.58;;
15952;SDS011;8075;47.766;8.846;2023-08-20T11:06:12;3.70;;;3.35;;
15952;SDS011;8075;47.766;8.846;2023-08-20T11:08:38;3.57;;;3.27;;
15952;SDS011;8075;47.766;8.846;2023-08-20T11:11:05;5.07;;;3.70;;
15952;SDS011;8075;47.766;8.846;2023-08-20T11:13:32;3.97;;;3.30;;
15952;SDS011;8075;47.766;8.846;2023-08-20T11:15:59;4.07;;;3.60;;
15952;SDS011;8075;47.766;8.846;2023-08-20T11:18:25;5.28;;;3.53;;
15952;SDS011;8075;47.766;8.846;2023-08-20T11:20:51;3.83;;;3.30;;
15952;SDS011;8075;47.766;8.846;2023-08-20T11:23:17;4.05;;;3.20;;
15952;SDS011;8075;47.766;8.846;2023-08-20T11:25:43;5.17;;;3.20;;
15952;SDS011;8075;47.766;8.846;2023-08-20T11:28:09;5.43;;;3.40;;
15952;SDS011;8075;47.766;8.846;2023-08-20T11:30:35;4.65;;;3.80;;
15952;SDS011;8075;47.766;8.846;2023-08-20T11:33:01;4.00;;;3.33;;
15952;SDS011;8075;47.766;8.846;2023-08-20T11:35:27;5.15;;;3.40;;
15952;SDS011;8075;47.766;8.846;2023-08-20T11:37:53;5.18;;;3.10;;
15952;SDS011;8075;47.766;8.846;2023-08-20T11:40:22;4.88;;;3.40;;
15952;SDS011;8075;47.766;8.846;2023-08-20T11:42:49;3.63;;;3.33;;
15952;SDS011;8075;47.766;8.846;2023-08-20T11:45:15;4.90;;;3.20;;
15952;SDS011;8075;47.766;8.846;2023-08-20T11:47:41;3.97;;;3.58;;
15952;SDS011;8075;47.766;8.846;2023-08-20T11:50:08;3.42;;;3.13;;
15952;SDS011;8075;47.766;8.846;2023-08-20T11:52:35;5.22;;;3.63;;
15952;SDS011;8075;47.766;8.846;2023-08-20T11:55:01;4.20;;;3.25;;
15952;SDS011;8075;47.766;8.846;2023-08-20T11:57:28;6.10;;;3.30;;
15952;SDS011;8075;47.766;8.846;2023-08-20T11:59:54;4.22;;;3.20;;
15952;SDS011;8075;47.766;8.846;2023-08-20T12:02:27;4.32;;;3.05;;
15952;SDS011;8075;47.766;8.846;2023-08-20T12:04:55;3.75;;;3.13;;
15952;SDS011;8075;47.766;8.846;2023-08-20T12:07:25;3.92;;;2.83;;
15952;SDS011;8075;47.766;8.846;2023-08-20T12:09:52;3.33;;;2.95;;
15952;SDS011;8075;47.766;8.846;2023-08-20T12:12:18;3.72;;;3.03;;
15952;SDS011;8075;47.766;8.846;2023-08-20T12:14:45;4.50;;;3.30;;
15952;SDS011;8075;47.766;8.846;2023-08-20T12:17:12;4.13;;;3.05;;
15952;SDS011;8075;47.766;8.846;2023-08-20T12:19:38;4.97;;;2.70;;
15952;SDS011;8075;47.766;8.846;2023-08-20T12:22:04;3.22;;;2.72;;
15952;SDS011;8075;47.766;8.846;2023-08-20T12:24:30;3.22;;;2.38;;
15952;SDS011;8075;47.766;8.846;2023-08-20T12:26:56;3.73;;;2.40;;
15952;SDS011;8075;47.766;8.846;2023-08-20T12:29:22;4.07;;;2.30;;
15952;SDS011;8075;47.766;8.846;2023-08-20T12:31:48;2.70;;;2.45;;
15952;SDS011;8075;47.766;8.846;2023-08-20T12:34:15;3.72;;;2.60;;
15952;SDS011;8075;47.766;8.846;2023-08-20T12:36:41;3.58;;;2.70;;
15952;SDS011;8075;47.766;8.846;2023-08-20T12:39:07;3.38;;;2.38;;
15952;SDS011;8075;47.766;8.846;2023-08-20T12:41:33;4.30;;;2.75;;
15952;SDS011;8075;47.766;8.846;2023-08-20T12:44:01;2.83;;;2.47;;
15952;SDS011;8075;47.766;8.846;2023-08-20T12:46:27;2.33;;;2.05;;
15952;SDS011;8075;47.766;8.846;2023-08-20T12:48:53;3.65;;;2.42;;
15952;SDS011;8075;47.766;8.846;2023-08-20T12:51:19;3.30;;;2.40;;
15952;SDS011;8075;47.766;8.846;2023-08-20T12:53:46;3.33;;;2.60;;
15952;SDS011;8075;47.766;8.846;2023-08-20T12:56:12;4.40;;;2.50;;
15952;SDS011;8075;47.766;8.846;2023-08-20T12:58:38;3.10;;;2.50;;
15952;SDS011;8075;47.766;8.846;2023-08-20T13:01:04;2.90;;;2.35;;
15952;SDS011;8075;47.766;8.846;2023-08-20T13:03:30;2.47;;;2.13;;
15952;SDS011;8075;47.766;8.846;2023-08-20T13:05:57;2.47;;;2.03;;
15952;SDS011;8075;47.766;8.846;2023-08-20T13:08:24;3.58;;;2.10;;
15952;SDS011;8075;47.766;8.846;2023-08-20T13:10:53;4.00;;;2.40;;
15952;SDS011;8075;47.766;8.846;2023-08-20T13:13:20;2.80;;;2.30;;
15952;SDS011;8075;47.766;8.846;2023-08-20T13:15:47;4.30;;;2.05;;
15952;SDS011;8075;47.766;8.846;2023-08-20T13:18:13;4.05;;;2.00;;
15952;SDS011;8075;47.766;8.846;2023-08-20T13:20:39;2.60;;;2.00;;
15952;SDS011;8075;47.766;8.846;2023-08-20T13:23:05;3.15;;;1.77;;
15952;SDS011;8075;47.766;8.846;2023-08-20T13:25:31;2.30;;;1.90;;
15952;SDS011;8075;47.766;8.846;2023-08-20T13:27:57;4.05;;;1.88;;
15952;SDS011;8075;47.766;8.846;2023-08-20T13:30:23;2.70;;;1.90;;
15952;SDS011;8075;47.766;8.846;2023-08-20T13:32:49;2.88;;;1.90;;
15952;SDS011;8075;47.766;8.846;2023-08-20T13:35:16;2.80;;;1.73;;
15952;SDS011;8075;47.766;8.846;2023-08-20T13:37:43;3.78;;;1.73;;
15952;SDS011;8075;47.766;8.846;2023-08-20T13:40:09;2.67;;;1.87;;
15952;SDS011;8075;47.766;8.846;2023-08-20T13:42:35;3.67;;;1.67;;
15952;SDS011;8075;47.766;8.846;2023-08-20T13:45:01;2.63;;;1.70;;
15952;SDS011;8075;47.766;8.846;2023-08-20T13:47:27;3.40;;;1.60;;
15952;SDS011;8075;47.766;8.846;2023-08-20T13:49:53;2.30;;;1.70;;
15952;SDS011;8075;47.766;8.846;2023-08-20T13:52:19;2.40;;;1.70;;
15952;SDS011;8075;47.766;8.846;2023-08-20T13:54:45;2.40;;;1.73;;
15952;SDS011;8075;47.766;8.846;2023-08-20T13:57:11;3.65;;;2.10;;
15952;SDS011;8075;47.766;8.846;2023-08-20T13:59:38;2.80;;;1.95;;
15952;SDS011;8075;47.766;8.846;2023-08-20T14:02:04;2.92;;;2.00;;
15952;SDS011;8075;47.766;8.846;2023-08-20T14:04:30;3.65;;;1.80;;
15952;SDS011;8075;47.766;8.846;2023-08-20T14:06:56;2.67;;;1.63;;
15952;SDS011;8075;47.766;8.846;2023-08-20T14:09:22;2.05;;;1.60;;
15952;SDS011;8075;47.766;8.846;2023-08-20T14:11:48;2.63;;;1.70;;
15952;SDS011;8075;47.766;8.846;2023-08-20T14:14:14;3.15;;;1.88;;
15952;SDS011;8075;47.766;8.846;2023-08-20T14:16:40;3.50;;;1.85;;
15952;SDS011;8075;47.766;8.846;2023-08-20T14:19:06;3.50;;;1.98;;
15952;SDS011;8075;47.766;8.846;2023-08-20T14:21:32;2.20;;;2.00;;
15952;SDS011;8075;47.766;8.846;2023-08-20T14:23:58;8.27;;;7.60;;
15952;SDS011;8075;47.766;8.846;2023-08-20T14:26:24;2.65;;;1.60;;
15952;SDS011;8075;47.766;8.846;2023-08-20T14:28:50;2.13;;;1.60;;
15952;SDS011;8075;47.766;8.846;2023-08-20T14:31:16;4.25;;;1.90;;
15952;SDS011;8075;47.766;8.846;2023-08-20T14:33:43;3.03;;;1.90;;
15952;SDS011;8075;47.766;8.846;2023-08-20T14:36:09;2.55;;;1.70;;
15952;SDS011;8075;47.766;8.846;2023-08-20T14:38:35;2.83;;;1.98;;
15952;SDS011;8075;47.766;8.846;2023-08-20T14:41:02;2.65;;;1.73;;
15952;SDS011;8075;47.766;8.846;2023-08-20T14:43:28;3.53;;;1.70;;
15952;SDS011;8075;47.766;8.846;2023-08-20T14:45:55;1.80;;;1.40;;
15952;SDS011;8075;47.766;8.846;2023-08-20T14:48:21;3.50;;;1.80;;
15952;SDS011;8075;47.766;8.846;2023-08-20T14:50:47;1.90;;;1.70;;
15952;SDS011;8075;47.766;8.846;2023-08-20T14:53:14;1.88;;;1.73;;
15952;SDS011;8075;47.766;8.846;2023-08-20T14:55:40;2.22;;;1.63;;
15952;SDS011;8075;47.766;8.846;2023-08-20T14:58:06;2.50;;;1.90;;
15952;SDS011;8075;47.766;8.846;2023-08-20T15:00:32;2.75;;;1.80;;
15952;SDS011;8075;47.766;8.846;2023-08-20T15:02:58;3.25;;;1.88;;
15952;SDS011;8075;47.766;8.846;2023-08-20T15:05:24;2.60;;;1.90;;
15952;SDS011;8075;47.766;8.846;2023-08-20T15:07:50;2.50;;;1.90;;
15952;SDS011;8075;47.766;8.846;2023-08-20T15:10:16;3.05;;;2.00;;
15952;SDS011;8075;47.766;8.846;2023-08-20T15:12:43;3.87;;;2.03;;
15952;SDS011;8075;47.766;8.846;2023-08-20T15:15:09;2.83;;;1.98;;